createdAt,value
2023-09-27T00:00:11.033Z,101127.19
2023-09-27T00:02:42.070Z,101123.97
2023-09-27T00:05:11.963Z,101126.25
2023-09-27T00:07:40.501Z,101121.38
2023-09-27T00:10:11.486Z,101118.13
2023-09-27T00:12:39.390Z,101124.34
2023-09-27T00:15:09.097Z,101117.53
2023-09-27T00:17:36.365Z,101121.44
2023-09-27T00:20:04.842Z,101121.75
2023-09-27T00:22:32.580Z,101107.44
2023-09-27T00:25:00.572Z,101116.91
2023-09-27T00:27:27.641Z,101112.00
2023-09-27T00:29:54.863Z,101114.97
2023-09-27T00:32:22.369Z,101118.09
2023-09-27T00:34:49.652Z,101119.56
2023-09-27T00:37:16.896Z,101116.34
2023-09-27T00:39:43.920Z,101118.59
2023-09-27T00:42:11.254Z,101120.09
2023-09-27T00:44:38.429Z,101120.44
2023-09-27T00:47:06.016Z,101125.50
2023-09-27T00:49:33.213Z,101115.91
2023-09-27T00:52:00.380Z,101117.03
2023-09-27T00:54:28.115Z,101116.41
2023-09-27T00:56:55.250Z,101119.53
2023-09-27T00:59:22.500Z,101122.63
2023-09-27T01:01:49.665Z,101121.00
2023-09-27T01:04:17.424Z,101114.97
2023-09-27T01:06:45.187Z,101121.66
2023-09-27T01:09:15.458Z,101125.59
2023-09-27T01:11:43.374Z,101117.59
2023-09-27T01:14:10.662Z,101123.47
2023-09-27T01:16:38.110Z,101124.63
2023-09-27T01:19:05.569Z,101121.03
2023-09-27T01:21:32.797Z,101128.53
2023-09-27T01:23:59.839Z,101129.34
2023-09-27T01:26:28.265Z,101121.38
2023-09-27T01:28:56.462Z,101130.81
2023-09-27T01:31:23.743Z,101130.31
2023-09-27T01:33:51.178Z,101130.31
2023-09-27T01:36:19.864Z,101129.50
2023-09-27T01:38:46.900Z,101128.19
2023-09-27T01:41:14.747Z,101124.97
2023-09-27T01:43:41.832Z,101127.22
2023-09-27T01:46:08.901Z,101129.69
2023-09-27T01:48:36.158Z,101133.28
2023-09-27T01:51:04.041Z,101126.56
2023-09-27T01:53:31.134Z,101132.13
2023-09-27T01:55:58.248Z,101130.50
2023-09-27T01:58:25.271Z,101137.16
2023-09-27T02:00:52.360Z,101132.78
2023-09-27T02:03:21.635Z,101137.53
2023-09-27T02:05:48.962Z,101136.69
2023-09-27T02:08:17.087Z,101137.84
2023-09-27T02:10:45.143Z,101137.34
2023-09-27T02:13:12.545Z,101139.66
2023-09-27T02:15:40.077Z,101138.03
2023-09-27T02:18:07.371Z,101145.19
2023-09-27T02:20:34.521Z,101140.31
2023-09-27T02:23:01.685Z,101145.38
2023-09-27T02:25:29.030Z,101143.72
2023-09-27T02:27:56.113Z,101148.78
2023-09-27T02:30:23.176Z,101147.16
2023-09-27T02:32:50.257Z,101148.66
2023-09-27T02:35:20.760Z,101150.13
2023-09-27T02:37:48.213Z,101153.22
2023-09-27T02:40:16.838Z,101152.41
2023-09-27T02:42:45.247Z,101161.84
2023-09-27T02:45:13.057Z,101153.88
2023-09-27T02:47:40.998Z,101156.16
2023-09-27T02:50:11.709Z,101158.44
2023-09-27T02:52:41.806Z,101156.00
2023-09-27T02:55:12.101Z,101154.38
2023-09-27T02:57:39.786Z,101156.66
2023-09-27T03:00:08.164Z,101143.94
2023-09-27T03:02:36.662Z,101156.16
2023-09-27T03:05:07.307Z,101144.63
2023-09-27T03:07:39.587Z,101146.88
2023-09-27T03:10:14.016Z,101143.66
2023-09-27T03:12:42.057Z,101145.91
2023-09-27T03:15:13.969Z,101145.91
2023-09-27T03:17:43.958Z,101153.75
2023-09-27T03:20:20.814Z,101158.78
2023-09-27T03:22:49.527Z,101154.41
2023-09-27T03:25:20.067Z,101150.00
2023-09-27T03:27:47.761Z,101156.69
2023-09-27T03:30:15.889Z,101164.50
2023-09-27T03:32:44.052Z,101162.88
2023-09-27T03:35:11.272Z,101170.69
2023-09-27T03:37:39.393Z,101163.50
2023-09-27T03:40:17.007Z,101161.91
2023-09-27T03:42:45.651Z,101165.81
2023-09-27T03:45:14.260Z,101171.34
2023-09-27T03:47:44.313Z,101165.34
2023-09-27T03:50:13.724Z,101162.56
2023-09-27T03:52:41.875Z,101167.28
2023-09-27T03:55:09.892Z,101170.38
2023-09-27T03:57:38.806Z,101170.38
2023-09-27T04:00:15.439Z,101163.22
2023-09-27T04:02:44.810Z,101161.59
2023-09-27T04:05:12.678Z,101165.81
2023-09-27T04:07:43.456Z,101161.41
2023-09-27T04:10:36.575Z,101170.53
2023-09-27T04:13:04.446Z,101174.44
2023-09-27T04:15:31.916Z,101178.84
2023-09-27T04:17:59.106Z,101169.38
2023-09-27T04:20:26.822Z,101182.09
2023-09-27T04:22:53.888Z,101177.38
2023-09-27T04:25:21.360Z,101180.47
2023-09-27T04:27:51.101Z,101174.13
2023-09-27T04:30:20.876Z,101171.00
2023-09-27T04:32:52.840Z,101173.78
2023-09-27T04:35:21.271Z,101174.28
2023-09-27T04:37:48.655Z,101170.38
2023-09-27T04:40:15.891Z,101177.19
2023-09-27T04:42:43.238Z,101171.34
2023-09-27T04:45:14.158Z,101173.78
2023-09-27T04:47:42.083Z,101172.97
2023-09-27T04:50:13.374Z,101180.13
2023-09-27T04:52:41.147Z,101176.25
2023-09-27T04:55:10.073Z,101181.09
2023-09-27T04:57:37.886Z,101181.09
2023-09-27T05:00:07.279Z,101184.38
2023-09-27T05:02:34.716Z,101174.91
2023-09-27T05:05:02.007Z,101184.53
2023-09-27T05:07:30.772Z,101173.59
2023-09-27T05:09:57.974Z,101182.88
2023-09-27T05:12:25.497Z,101181.09
2023-09-27T05:14:52.778Z,101183.53
2023-09-27T05:17:19.971Z,101185.34
2023-09-27T05:19:47.032Z,101182.22
2023-09-27T05:22:15.675Z,101192.66
2023-09-27T05:24:42.754Z,101186.78
2023-09-27T05:27:09.924Z,101193.63
2023-09-27T05:29:37.192Z,101193.75
2023-09-27T05:32:04.671Z,101189.19
2023-09-27T05:34:33.396Z,101189.38
2023-09-27T05:37:00.620Z,101189.53
2023-09-27T05:39:27.868Z,101197.19
2023-09-27T05:41:54.986Z,101200.09
2023-09-27T05:44:22.111Z,101193.91
2023-09-27T05:46:49.799Z,101194.06
2023-09-27T05:49:18.152Z,101202.22
2023-09-27T05:51:45.739Z,101201.56
2023-09-27T05:54:12.749Z,101200.09
2023-09-27T05:56:39.857Z,101200.69
2023-09-27T05:59:10.041Z,101193.34
2023-09-27T06:01:37.607Z,101194.31
2023-09-27T06:04:05.211Z,101204.09
2023-09-27T06:06:33.772Z,101197.53
2023-09-27T06:09:01.161Z,101200.47
2023-09-27T06:11:29.172Z,101198.63
2023-09-27T06:13:56.406Z,101204.81
2023-09-27T06:16:24.019Z,101192.75
2023-09-27T06:18:51.796Z,101193.34
2023-09-27T06:21:19.002Z,101192.81
2023-09-27T06:23:46.213Z,101198.53
2023-09-27T06:26:13.934Z,101190.34
2023-09-27T06:28:41.410Z,101195.69
2023-09-27T06:31:08.690Z,101207.41
2023-09-27T06:33:39.670Z,101201.66
2023-09-27T06:36:11.091Z,101200.69
2023-09-27T06:38:38.225Z,101202.13
2023-09-27T06:41:05.509Z,101205.66
2023-09-27T06:43:32.916Z,101205.94
2023-09-27T06:46:02.805Z,101209.47
2023-09-27T06:48:30.534Z,101213.00
2023-09-27T06:50:57.782Z,101210.94
2023-09-27T06:53:29.870Z,101210.06
2023-09-27T06:56:00.284Z,101214.03
2023-09-27T06:58:27.438Z,101215.59
2023-09-27T07:00:55.972Z,101202.44
2023-09-27T07:03:26.867Z,101197.63
2023-09-27T07:05:54.729Z,101201.94
2023-09-27T07:08:22.388Z,101201.84
2023-09-27T07:10:50.307Z,101208.22
2023-09-27T07:13:17.908Z,101201.41
2023-09-27T07:15:49.237Z,101208.97
2023-09-27T07:18:16.586Z,101202.94
2023-09-27T07:20:43.925Z,101204.13
2023-09-27T07:23:16.416Z,101209.22
2023-09-27T07:25:44.449Z,101207.16
2023-09-27T07:28:11.982Z,101203.44
2023-09-27T07:30:39.673Z,101215.25
2023-09-27T07:33:13.375Z,101206.78
2023-09-27T07:35:44.360Z,101205.13
2023-09-27T07:38:15.351Z,101213.81
2023-09-27T07:40:46.784Z,101204.97
2023-09-27T07:43:15.509Z,101204.47
2023-09-27T07:45:44.620Z,101205.63
2023-09-27T07:48:12.008Z,101209.06
2023-09-27T07:50:39.999Z,101209.19
2023-09-27T07:53:08.109Z,101210.91
2023-09-27T07:55:44.635Z,101210.19
2023-09-27T07:58:13.897Z,101198.78
2023-09-27T08:00:41.813Z,101192.13
2023-09-27T08:03:09.524Z,101199.50
2023-09-27T08:05:54.690Z,101188.91
2023-09-27T08:08:22.862Z,101190.25
2023-09-27T08:10:51.281Z,101186.06
2023-09-27T08:13:18.974Z,101184.69
2023-09-27T08:15:50.584Z,101176.59
2023-09-27T08:18:17.817Z,101179.34
2023-09-27T08:20:45.280Z,101179.25
2023-09-27T08:23:12.992Z,101181.94
2023-09-27T08:25:40.306Z,101178.59
2023-09-27T08:28:07.961Z,101172.44
2023-09-27T08:30:35.208Z,101175.91
2023-09-27T08:33:02.622Z,101172.13
2023-09-27T08:35:30.338Z,101165.19
2023-09-27T08:37:57.656Z,101169.38
2023-09-27T08:40:25.027Z,101166.00
2023-09-27T08:42:57.210Z,101170.63
2023-09-27T08:45:24.695Z,101162.47
2023-09-27T08:47:52.428Z,101161.78
2023-09-27T08:50:19.995Z,101159.22
2023-09-27T08:52:50.707Z,101160.69
2023-09-27T08:55:19.216Z,101158.81
2023-09-27T08:57:47.704Z,101157.78
2023-09-27T09:00:16.224Z,101154.28
2023-09-27T09:02:45.064Z,101154.84
2023-09-27T09:05:15.283Z,101148.25
2023-09-27T09:07:45.869Z,101150.72
2023-09-27T09:10:44.588Z,101149.72
2023-09-27T09:13:12.384Z,101144.31
2023-09-27T09:15:43.103Z,101142.50
2023-09-27T09:18:16.445Z,101146.25
2023-09-27T09:20:56.312Z,101136.03
2023-09-27T09:23:36.681Z,101132.16
2023-09-27T09:26:13.072Z,101125.00
2023-09-27T09:28:54.376Z,101123.06
2023-09-27T09:31:26.487Z,101123.16
2023-09-27T09:34:07.191Z,101117.66
2023-09-27T09:36:35.072Z,101118.09
2023-09-27T09:39:14.773Z,101116.56
2023-09-27T09:41:50.143Z,101111.47
2023-09-27T09:44:21.858Z,101114.78
2023-09-27T09:46:49.642Z,101106.06
2023-09-27T09:49:17.318Z,101107.38
2023-09-27T09:51:48.998Z,101103.00
2023-09-27T09:54:32.024Z,101089.06
2023-09-27T09:57:07.997Z,101089.59
2023-09-27T09:59:46.572Z,101088.09
2023-09-27T10:02:24.536Z,101096.16
2023-09-27T10:04:57.624Z,101083.44
2023-09-27T10:07:25.055Z,101084.72
2023-09-27T10:09:53.585Z,101077.53
2023-09-27T10:12:22.584Z,101080.81
2023-09-27T10:14:50.140Z,101080.44
2023-09-27T10:17:22.032Z,101076.84
2023-09-27T10:20:21.272Z,101068.34
2023-09-27T10:22:49.539Z,101073.16
2023-09-27T10:25:28.978Z,101071.97
2023-09-27T10:28:16.605Z,101058.72
2023-09-27T10:30:46.625Z,101068.81
2023-09-27T10:33:17.271Z,101059.16
2023-09-27T10:35:48.367Z,101061.22
2023-09-27T10:38:17.208Z,101061.25
2023-09-27T10:40:45.517Z,101062.09
2023-09-27T10:43:42.272Z,101062.56
2023-09-27T10:46:09.727Z,101058.97
2023-09-27T10:48:43.829Z,101051.81
2023-09-27T10:51:11.020Z,101058.66
2023-09-27T10:53:38.691Z,101052.66
2023-09-27T10:56:05.903Z,101045.03
2023-09-27T10:58:33.380Z,101047.06
2023-09-27T11:01:05.993Z,101043.47
2023-09-27T11:03:34.687Z,101043.03
2023-09-27T11:06:12.301Z,101044.66
2023-09-27T11:08:41.504Z,101044.28
2023-09-27T11:11:10.932Z,101042.28
2023-09-27T11:13:45.136Z,101034.28
2023-09-27T11:16:16.073Z,101026.69
2023-09-27T11:18:47.679Z,101026.69
2023-09-27T11:21:15.346Z,101027.47
2023-09-27T11:23:55.740Z,101020.59
2023-09-27T11:26:24.158Z,101019.84
2023-09-27T11:29:03.606Z,101017.03
2023-09-27T11:31:32.615Z,101011.03
2023-09-27T11:34:19.824Z,101008.22
2023-09-27T11:36:47.548Z,101012.63
2023-09-27T11:39:15.202Z,101010.13
2023-09-27T11:41:43.238Z,101002.91
2023-09-27T11:44:20.587Z,101010.13
2023-09-27T11:46:50.834Z,101009.31
2023-09-27T11:49:19.135Z,101007.28
2023-09-27T11:51:46.655Z,101008.47
2023-09-27T11:54:14.060Z,101005.25
2023-09-27T11:56:47.656Z,101009.22
2023-09-27T11:59:15.760Z,101006.03
2023-09-27T12:01:42.971Z,101003.25
2023-09-27T12:04:10.476Z,100998.03
2023-09-27T12:06:38.940Z,101002.88
2023-09-27T12:09:06.614Z,101004.03
2023-09-27T12:11:34.741Z,100990.81
2023-09-27T12:14:02.510Z,101003.66
2023-09-27T12:16:30.149Z,101000.44
2023-09-27T12:18:57.308Z,100994.00
2023-09-27T12:21:25.212Z,100998.84
2023-09-27T12:23:52.661Z,100998.84
2023-09-27T12:26:20.052Z,101002.88
2023-09-27T12:28:48.071Z,100990.41
2023-09-27T12:31:15.736Z,100997.22
2023-09-27T12:33:43.134Z,100997.97
2023-09-27T12:36:10.765Z,100998.78
2023-09-27T12:38:38.177Z,100983.53
2023-09-27T12:41:09.140Z,100990.34
2023-09-27T12:43:36.483Z,100996.75
2023-09-27T12:46:04.094Z,100984.31
2023-09-27T12:48:35.336Z,100977.88
2023-09-27T12:51:03.302Z,100984.25
2023-09-27T12:53:31.208Z,100981.84
2023-09-27T12:55:58.614Z,100985.47
2023-09-27T12:58:25.996Z,100989.09
2023-09-27T13:00:53.284Z,100984.66
2023-09-27T13:03:20.831Z,100973.84
2023-09-27T13:05:50.290Z,100982.63
2023-09-27T13:08:17.635Z,100979.81
2023-09-27T13:10:45.689Z,100980.16
2023-09-27T13:13:13.216Z,100979.75
2023-09-27T13:15:40.942Z,100977.72
2023-09-27T13:18:09.682Z,100978.50
2023-09-27T13:20:37.220Z,100983.72
2023-09-27T13:23:04.745Z,100965.25
2023-09-27T13:25:31.972Z,100976.84
2023-09-27T13:27:59.358Z,100973.63
2023-09-27T13:30:35.527Z,100965.59
2023-09-27T13:33:04.547Z,100962.41
2023-09-27T13:35:35.056Z,100958.75
2023-09-27T13:38:07.405Z,100959.16
2023-09-27T13:40:35.622Z,100960.75
2023-09-27T13:43:03.171Z,100955.91
2023-09-27T13:45:30.948Z,100957.53
2023-09-27T13:47:58.567Z,100961.53
2023-09-27T13:50:26.239Z,100955.91
2023-09-27T13:52:53.545Z,100961.53
2023-09-27T13:55:22.908Z,100957.50
2023-09-27T13:57:50.396Z,100955.91
2023-09-27T14:00:18.814Z,100956.66
2023-09-27T14:02:46.765Z,100949.44
2023-09-27T14:05:14.218Z,100953.84
2023-09-27T14:07:43.374Z,100947.84
2023-09-27T14:10:37.012Z,100950.22
2023-09-27T14:13:04.693Z,100951.00
2023-09-27T14:15:32.560Z,100949.38
2023-09-27T14:17:59.888Z,100948.97
2023-09-27T14:20:27.824Z,100948.13
2023-09-27T14:22:57.326Z,100940.50
2023-09-27T14:25:26.354Z,100942.88
2023-09-27T14:27:54.482Z,100949.63
2023-09-27T14:30:21.901Z,100947.22
2023-09-27T14:32:49.585Z,100945.22
2023-09-27T14:35:17.384Z,100942.78
2023-09-27T14:37:44.603Z,100943.13
2023-09-27T14:40:12.420Z,100941.88
2023-09-27T14:42:41.245Z,100937.03
2023-09-27T14:45:20.182Z,100939.44
2023-09-27T14:47:52.679Z,100942.59
2023-09-27T14:50:20.162Z,100946.16
2023-09-27T14:52:47.870Z,100949.75
2023-09-27T14:55:16.576Z,100940.53
2023-09-27T14:57:43.812Z,100939.69
2023-09-27T15:00:13.284Z,100941.66
2023-09-27T15:02:42.839Z,100949.97
2023-09-27T15:05:12.410Z,100947.53
2023-09-27T15:07:40.086Z,100947.50
2023-09-27T15:10:33.283Z,100955.78
2023-09-27T15:13:01.740Z,100957.34
2023-09-27T15:15:29.438Z,100957.25
2023-09-27T15:17:56.691Z,100958.34
2023-09-27T15:20:24.028Z,100957.38
2023-09-27T15:22:51.571Z,100965.25
2023-09-27T15:25:18.961Z,100968.66
2023-09-27T15:27:46.774Z,100966.09
2023-09-27T15:30:13.965Z,100970.72
2023-09-27T15:32:41.246Z,100961.38
2023-09-27T15:35:09.107Z,100970.41
2023-09-27T15:37:36.446Z,100969.09
2023-09-27T15:40:06.540Z,100975.72
2023-09-27T15:42:33.771Z,100967.91
2023-09-27T15:45:04.735Z,100969.78
2023-09-27T15:47:34.062Z,100967.34
2023-09-27T15:50:01.283Z,100976.50
2023-09-27T15:52:31.303Z,100972.84
2023-09-27T15:54:59.244Z,100973.59
2023-09-27T15:57:26.579Z,100979.91
2023-09-27T15:59:53.965Z,100978.25
2023-09-27T16:02:21.204Z,100981.78
2023-09-27T16:04:52.749Z,100981.28
2023-09-27T16:07:21.746Z,100981.59
2023-09-27T16:09:49.184Z,100975.13
2023-09-27T16:12:17.709Z,100983.41
2023-09-27T16:14:45.105Z,100985.31
2023-09-27T16:17:12.513Z,100974.44
2023-09-27T16:19:40.797Z,100979.16
2023-09-27T16:22:08.003Z,100977.84
2023-09-27T16:24:35.128Z,100980.91
2023-09-27T16:27:02.381Z,100984.44
2023-09-27T16:29:29.777Z,100977.16
2023-09-27T16:31:58.567Z,100986.63
2023-09-27T16:34:26.618Z,100983.00
2023-09-27T16:36:53.828Z,100979.31
2023-09-27T16:39:21.048Z,100972.84
2023-09-27T16:41:48.319Z,100971.16
2023-09-27T16:44:15.811Z,100972.69
2023-09-27T16:46:43.089Z,100974.59
2023-09-27T16:49:10.935Z,100970.94
2023-09-27T16:51:38.343Z,100975.25
2023-09-27T16:54:05.615Z,100974.00
2023-09-27T16:56:33.416Z,100967.56
2023-09-27T16:59:01.022Z,100970.28
2023-09-27T17:01:28.707Z,100984.16
2023-09-27T17:03:56.474Z,100978.88
2023-09-27T17:06:24.211Z,100979.59
2023-09-27T17:08:51.440Z,100975.91
2023-09-27T17:11:24.536Z,100975.03
2023-09-27T17:13:52.489Z,100986.09
2023-09-27T17:16:27.778Z,100980.41
2023-09-27T17:18:55.713Z,100981.94
2023-09-27T17:21:23.668Z,100979.91
2023-09-27T17:23:51.291Z,100983.78
2023-09-27T17:26:19.011Z,100983.34
2023-09-27T17:28:46.284Z,100987.66
2023-09-27T17:31:13.871Z,100984.78
2023-09-27T17:33:42.603Z,100987.91
2023-09-27T17:36:10.418Z,100981.91
2023-09-27T17:38:38.551Z,100987.78
2023-09-27T17:41:05.843Z,100992.88
2023-09-27T17:43:35.291Z,100988.41
2023-09-27T17:46:02.790Z,100985.16
2023-09-27T17:48:30.424Z,100991.47
2023-09-27T17:50:57.895Z,100991.84
2023-09-27T17:53:25.368Z,100996.16
2023-09-27T17:55:53.025Z,100999.31
2023-09-27T17:58:20.801Z,101000.84
2023-09-27T18:00:49.245Z,101000.38
2023-09-27T18:03:16.574Z,100999.94
2023-09-27T18:05:43.854Z,101006.22
2023-09-27T18:08:11.437Z,101004.59
2023-09-27T18:10:45.228Z,101002.19
2023-09-27T18:13:12.602Z,100999.31
2023-09-27T18:15:40.804Z,101000.84
2023-09-27T18:18:07.922Z,101011.53
2023-09-27T18:20:38.637Z,101010.25
2023-09-27T18:23:06.036Z,101010.63
2023-09-27T18:25:33.379Z,101007.41
2023-09-27T18:28:01.004Z,101013.69
2023-09-27T18:30:28.141Z,101012.38
2023-09-27T18:32:55.293Z,101013.13
2023-09-27T18:35:22.676Z,101009.44
2023-09-27T18:37:49.802Z,101014.09
2023-09-27T18:40:19.745Z,101009.22
2023-09-27T18:42:46.842Z,101006.00
2023-09-27T18:45:14.194Z,101006.72
2023-09-27T18:47:41.741Z,101004.63
2023-09-27T18:50:09.316Z,101013.72
2023-09-27T18:52:36.589Z,101007.25
2023-09-27T18:55:04.269Z,101011.91
2023-09-27T18:57:31.860Z,101014.22
2023-09-27T18:59:59.235Z,101009.38
2023-09-27T19:02:26.537Z,101008.47
2023-09-27T19:04:54.160Z,100998.38
2023-09-27T19:07:21.737Z,100996.31
2023-09-27T19:09:49.429Z,101006.19
2023-09-27T19:12:17.022Z,101008.53
2023-09-27T19:14:45.630Z,101012.00
2023-09-27T19:17:12.738Z,101005.53
2023-09-27T19:19:45.061Z,101009.84
2023-09-27T19:22:12.464Z,101009.75
2023-09-27T19:24:39.573Z,101014.84
2023-09-27T19:27:06.887Z,101011.16
2023-09-27T19:29:34.052Z,101017.88
2023-09-27T19:32:01.589Z,101008.16
2023-09-27T19:34:28.800Z,101010.00
2023-09-27T19:36:55.940Z,101011.16
2023-09-27T19:39:23.224Z,101013.47
2023-09-27T19:41:51.110Z,101014.22
2023-09-27T19:44:19.133Z,101014.91
2023-09-27T19:46:46.787Z,101016.41
2023-09-27T19:49:14.251Z,101012.38
2023-09-27T19:51:41.441Z,101007.50
2023-09-27T19:54:09.832Z,101009.84
2023-09-27T19:56:36.959Z,101016.09
2023-09-27T19:59:04.842Z,101005.66
2023-09-27T20:01:33.122Z,101014.38
2023-09-27T20:04:00.535Z,101013.09
2023-09-27T20:06:29.062Z,101019.03
2023-09-27T20:08:56.616Z,101016.94
2023-09-27T20:11:24.931Z,101018.88
2023-09-27T20:13:52.752Z,101014.03
2023-09-27T20:16:20.287Z,101010.78
2023-09-27T20:18:47.681Z,101015.91
2023-09-27T20:21:14.732Z,101007.44
2023-09-27T20:23:42.036Z,101012.88
2023-09-27T20:26:09.355Z,101007.22
2023-09-27T20:28:37.322Z,101009.53
2023-09-27T20:31:04.717Z,101013.81
2023-09-27T20:33:31.937Z,101006.19
2023-09-27T20:35:59.194Z,100995.78
2023-09-27T20:38:26.811Z,101001.66
2023-09-27T20:40:54.046Z,101003.63
2023-09-27T20:43:21.076Z,100999.13
2023-09-27T20:45:48.300Z,101009.44
2023-09-27T20:48:15.438Z,101014.53
2023-09-27T20:50:42.574Z,101006.53
2023-09-27T20:53:09.760Z,101008.88
2023-09-27T20:55:36.793Z,101012.00
2023-09-27T20:58:04.719Z,101004.34
2023-09-27T21:00:31.899Z,101005.50
2023-09-27T21:02:59.113Z,101003.06
2023-09-27T21:05:26.327Z,101003.41
2023-09-27T21:07:54.242Z,101000.16
2023-09-27T21:10:22.281Z,101002.94
2023-09-27T21:12:49.521Z,100997.72
2023-09-27T21:15:16.549Z,100996.91
2023-09-27T21:17:43.660Z,101006.41
2023-09-27T21:20:11.363Z,101001.19
2023-09-27T21:22:38.607Z,100995.97
2023-09-27T21:25:07.198Z,101005.81
2023-09-27T21:27:35.101Z,101002.59
2023-09-27T21:30:05.988Z,100996.53
2023-09-27T21:32:33.524Z,101004.09
2023-09-27T21:35:00.752Z,100991.31
2023-09-27T21:37:27.946Z,100994.47
2023-09-27T21:39:54.953Z,100992.84
2023-09-27T21:42:22.395Z,100997.94
2023-09-27T21:44:49.470Z,100992.72
2023-09-27T21:47:16.873Z,100996.66
2023-09-27T21:49:43.997Z,100995.84
2023-09-27T21:52:11.591Z,101000.13
2023-09-27T21:54:38.770Z,100996.91
2023-09-27T21:57:05.945Z,100997.25
2023-09-27T21:59:33.084Z,100998.75
2023-09-27T22:02:00.291Z,100997.13
2023-09-27T22:04:27.826Z,101008.56
2023-09-27T22:06:54.884Z,101001.75
2023-09-27T22:09:23.921Z,101004.53
2023-09-27T22:11:53.332Z,101008.44
2023-09-27T22:14:21.348Z,100996.88
2023-09-27T22:16:49.331Z,101014.69
2023-09-27T22:19:18.221Z,101009.47
2023-09-27T22:21:47.518Z,101018.16
2023-09-27T22:24:16.826Z,101018.03
2023-09-27T22:26:47.104Z,101020.00
2023-09-27T22:29:15.403Z,101019.53
2023-09-27T22:31:43.705Z,101013.50
2023-09-27T22:34:26.287Z,101010.28
2023-09-27T22:36:54.527Z,101013.72
2023-09-27T22:39:23.120Z,101011.28
2023-09-27T22:41:53.554Z,101012.78
2023-09-27T22:44:22.072Z,101007.91
2023-09-27T22:46:51.243Z,101007.78
2023-09-27T22:49:20.414Z,101003.75
2023-09-27T22:51:47.770Z,101004.41
2023-09-27T22:54:18.267Z,101005.13
2023-09-27T22:56:45.967Z,101009.03
2023-09-27T22:59:13.262Z,100996.31
2023-09-27T23:01:41.352Z,100998.63
2023-09-27T23:04:12.437Z,101010.41
2023-09-27T23:06:46.028Z,101009.94
2023-09-27T23:09:25.762Z,101001.47
2023-09-27T23:12:16.692Z,101003.75
2023-09-27T23:15:02.432Z,100992.53
2023-09-27T23:17:32.252Z,100998.75
2023-09-27T23:20:00.302Z,100994.72
2023-09-27T23:22:27.913Z,100986.28
2023-09-27T23:25:18.171Z,100996.88
2023-09-27T23:27:47.982Z,100992.00
2023-09-27T23:30:15.579Z,100986.00
2023-09-27T23:32:43.847Z,100989.09
2023-09-27T23:35:11.236Z,100993.38
2023-09-27T23:37:38.689Z,100984.59
2023-09-27T23:40:15.565Z,100982.63
2023-09-27T23:42:48.338Z,100986.09
2023-09-27T23:45:15.793Z,100979.72
2023-09-27T23:47:51.037Z,100983.66
2023-09-27T23:50:18.915Z,100978.09
2023-09-27T23:52:47.519Z,100980.38
2023-09-27T23:55:18.469Z,100975.16
2023-09-27T23:57:49.290Z,100976.34
